Time;durP1;ratioP1;P1;durP2;ratioP2;P2;SDS_P1;SDS_P2;PMS_P1;PMS_P2;Temp;Humidity;BMP_temperature;BMP_pressure;BME280_temperature;BME280_humidity;BME280_pressure;Samples;Min_cycle;Max_cycle;Signal;HPM_P1;HPM_P2
2023/09/19 00:00:51;;;;;;;1.80;1.30;;;18.50;80.50;;;20.09;57.95;97212.38;5019336;28;20049;-70
2023/09/19 00:03:18;;;;;;;4.97;1.70;;;18.50;80.60;;;19.99;58.14;97224.56;5019368;28;20710;-69
2023/09/19 00:05:47;;;;;;;2.17;1.40;;;18.40;80.80;;;19.99;57.99;97221.06;5014789;28;20046;-69
2023/09/19 00:08:15;;;;;;;1.88;1.25;;;18.30;81.40;;;20.03;57.97;97227.63;5016927;28;20409;-69
2023/09/19 00:10:43;;;;;;;1.73;1.10;;;18.30;81.30;;;20.01;58.33;97229.75;5021604;28;20042;-69
2023/09/19 00:13:14;;;;;;;1.67;1.10;;;18.30;81.00;;;19.94;58.35;97237.94;5006160;28;20049;-70
2023/09/19 00:15:49;;;;;;;1.67;1.05;;;18.30;81.80;;;19.89;58.44;97236.97;5020025;28;20045;-69
2023/09/19 00:18:24;;;;;;;1.95;1.10;;;18.30;81.40;;;19.84;58.69;97246.59;5018112;28;20464;-69
2023/09/19 00:20:52;;;;;;;1.00;0.90;;;18.20;81.60;;;19.83;58.74;97242.28;5037195;28;20049;-69
2023/09/19 00:23:20;;;;;;;2.45;1.98;;;18.20;81.80;;;19.80;58.65;97250.00;5022733;28;20045;-69
2023/09/19 00:25:50;;;;;;;1.55;1.25;;;18.20;81.70;;;19.81;58.69;97249.78;5016895;28;20433;-69
2023/09/19 00:28:19;;;;;;;2.30;1.33;;;18.20;81.80;;;19.79;58.57;97251.03;5019003;28;20061;-69
2023/09/19 00:30:50;;;;;;;3.42;0.93;;;18.20;81.60;;;19.80;58.68;97248.13;5036521;28;20045;-69
2023/09/19 00:33:19;;;;;;;3.13;1.20;;;18.20;81.60;;;19.78;58.74;97244.81;5030777;27;20054;-69
2023/09/19 00:35:52;;;;;;;2.90;1.27;;;18.20;81.90;;;19.75;58.53;97247.16;5055890;28;20451;-69
2023/09/19 00:38:22;;;;;;;1.50;1.10;;;18.10;81.40;;;19.73;58.67;97249.25;5030732;27;20436;-69
2023/09/19 00:40:53;;;;;;;2.63;1.27;;;18.20;81.20;;;19.72;58.93;97256.56;5011734;28;20045;-69
2023/09/19 00:43:23;;;;;;;2.22;1.50;;;18.20;80.90;;;19.68;58.89;97253.44;5019066;28;20050;-68
2023/09/19 00:45:55;;;;;;;1.30;1.00;;;18.20;81.10;;;19.72;58.69;97255.72;5021739;28;20033;-68
2023/09/19 00:48:24;;;;;;;2.20;2.00;;;18.10;81.20;;;19.72;58.73;97258.44;5020655;28;20073;-69
2023/09/19 00:50:53;;;;;;;1.70;1.50;;;18.20;80.80;;;19.74;58.61;97254.44;5001592;28;20042;-69
2023/09/19 00:53:23;;;;;;;2.15;1.83;;;18.20;80.70;;;19.73;58.52;97258.19;5011797;28;20053;-69
2023/09/19 00:55:52;;;;;;;1.58;1.10;;;18.20;80.70;;;19.72;58.57;97263.84;5004157;28;20054;-69
2023/09/19 00:58:20;;;;;;;1.33;1.02;;;18.10;81.20;;;19.74;58.71;97259.84;5029892;28;20061;-69
2023/09/19 01:00:49;;;;;;;3.17;1.23;;;18.10;81.30;;;19.73;58.64;97263.59;5002603;28;20054;-69
2023/09/19 01:03:18;;;;;;;2.50;1.40;;;18.10;81.50;;;19.72;58.36;97259.25;5017859;28;20046;-69
2023/09/19 01:05:47;;;;;;;2.80;1.60;;;18.10;81.30;;;19.70;58.55;97266.72;5011693;28;20072;-69
2023/09/19 01:08:14;;;;;;;3.03;1.60;;;18.00;81.20;;;19.70;58.25;97273.97;5023617;28;20413;-70
2023/09/19 01:11:32;;;;;;;2.15;1.23;;;18.00;81.20;;;19.67;58.72;97283.38;5019470;28;20053;-70
2023/09/19 01:14:30;;;;;;;1.45;1.10;;;18.00;80.60;;;19.68;58.33;97280.44;5024941;28;20094;-69
2023/09/19 01:17:22;;;;;;;1.45;0.98;;;18.00;81.30;;;19.66;58.13;97284.44;5020138;28;20041;-70
2023/09/19 01:20:14;;;;;;;3.95;1.33;;;18.00;81.00;;;19.63;58.41;97283.00;5017923;28;20050;-69
2023/09/19 01:23:07;;;;;;;1.85;1.00;;;18.00;80.60;;;19.62;58.12;97286.78;5027748;28;20523;-70
2023/09/19 01:25:57;;;;;;;2.25;1.10;;;18.00;80.60;;;19.61;58.42;97290.50;5019695;28;20448;-70
2023/09/19 01:28:43;;;;;;;2.50;1.17;;;18.00;80.60;;;19.59;58.70;97289.91;5023383;28;20068;-70
2023/09/19 01:31:12;;;;;;;1.95;1.20;;;17.90;81.10;;;19.60;58.48;97294.28;5009533;28;20540;-70
2023/09/19 01:34:00;;;;;;;1.85;1.10;;;17.90;81.10;;;19.56;58.66;97292.25;5005870;28;20050;-70
2023/09/19 01:36:36;;;;;;;1.60;1.20;;;17.90;81.50;;;19.56;58.71;97300.34;5020307;28;20045;-70
2023/09/19 01:39:08;;;;;;;1.60;1.13;;;17.80;81.80;;;19.49;58.76;97297.72;5020533;28;20060;-69
2023/09/19 01:42:17;;;;;;;2.80;1.20;;;17.80;82.50;;;19.48;58.55;97302.31;5020126;28;20063;-70
2023/09/19 01:45:16;;;;;;;2.85;1.40;;;17.80;82.40;;;19.48;59.00;97304.16;5009364;28;20061;-70
2023/09/19 01:47:57;;;;;;;1.70;1.02;;;17.70;82.80;;;19.47;58.68;97300.66;4972210;28;20049;-70
2023/09/19 01:50:43;;;;;;;3.05;1.40;;;17.70;82.50;;;19.45;58.87;97307.34;5028216;28;20050;-70
2023/09/19 01:53:23;;;;;;;1.67;1.02;;;17.70;82.20;;;19.46;58.68;97315.22;4992828;28;20046;-70
2023/09/19 01:55:53;;;;;;;1.75;1.20;;;17.70;82.10;;;19.44;58.53;97316.47;5019647;28;20054;-71
2023/09/19 01:58:38;;;;;;;2.08;1.35;;;17.70;82.00;;;19.39;58.74;97310.94;5003683;28;20045;-70
2023/09/19 02:01:08;;;;;;;1.40;1.17;;;17.70;82.00;;;19.38;58.81;97318.19;5048169;28;20049;-70
2023/09/19 02:03:39;;;;;;;3.42;1.55;;;17.70;82.20;;;19.39;58.75;97319.03;5019549;28;20126;-70
2023/09/19 02:06:11;;;;;;;2.03;1.40;;;17.70;82.30;;;19.36;58.82;97323.00;5016428;28;20042;-70
2023/09/19 02:08:39;;;;;;;1.83;1.02;;;17.60;82.20;;;19.34;58.85;97321.59;5024695;28;20045;-70
2023/09/19 02:11:07;;;;;;;1.75;1.50;;;17.60;82.50;;;19.31;58.88;97322.03;5019748;28;20041;-70
2023/09/19 02:13:34;;;;;;;2.95;1.38;;;17.50;82.50;;;19.31;58.92;97322.03;5029125;28;20042;-70
2023/09/19 02:16:04;;;;;;;2.28;1.20;;;17.60;82.00;;;19.29;58.63;97324.97;5035399;28;20405;-70
2023/09/19 02:18:34;;;;;;;2.30;1.00;;;17.60;81.70;;;19.28;58.90;97316.03;5005842;28;20049;-70
2023/09/19 02:21:12;;;;;;;2.70;1.25;;;17.60;81.60;;;19.24;58.85;97328.31;5013179;28;20057;-70
2023/09/19 02:23:40;;;;;;;2.17;1.25;;;17.60;81.50;;;19.21;58.97;97323.38;5026926;28;20044;-70
2023/09/19 02:26:09;;;;;;;1.75;1.00;;;17.60;81.50;;;19.26;58.58;97323.53;5016057;28;20265;-70
2023/09/19 02:28:36;;;;;;;2.80;1.55;;;17.70;81.30;;;19.25;58.74;97326.44;5006811;28;20050;-70
2023/09/19 02:31:07;;;;;;;1.67;1.30;;;17.70;80.90;;;19.25;58.78;97326.44;5027814;28;20045;-70
2023/09/19 02:33:35;;;;;;;1.85;1.33;;;17.70;80.90;;;19.26;58.72;97330.81;5027424;28;20100;-70
2023/09/19 02:36:03;;;;;;;1.48;1.10;;;17.70;80.70;;;19.29;58.86;97327.66;5017732;27;20497;-70
2023/09/19 02:38:31;;;;;;;3.03;1.40;;;17.70;80.80;;;19.35;58.79;97337.56;5015044;28;20045;-70
2023/09/19 02:41:00;;;;;;;1.40;1.30;;;17.80;80.60;;;19.35;58.59;97342.09;5019365;28;20525;-69
2023/09/19 02:43:28;;;;;;;1.50;1.30;;;17.80;80.40;;;19.40;58.46;97342.28;5028926;28;20053;-70
2023/09/19 02:45:57;;;;;;;1.92;1.23;;;17.80;80.40;;;19.37;58.61;97340.03;5024572;28;20060;-70
2023/09/19 02:48:25;;;;;;;1.55;1.20;;;17.70;80.80;;;19.37;58.84;97342.75;5023303;28;20046;-70
2023/09/19 02:50:53;;;;;;;2.33;1.30;;;17.70;80.80;;;19.42;58.41;97341.00;5020028;28;20502;-70
2023/09/19 02:53:21;;;;;;;2.80;1.10;;;17.80;80.90;;;19.41;58.54;97346.63;5110027;27;20046;-71
2023/09/19 02:55:48;;;;;;;1.75;1.02;;;17.70;81.00;;;19.45;58.50;97345.13;5014949;28;20042;-71
2023/09/19 02:58:18;;;;;;;1.48;1.02;;;17.80;81.00;;;19.45;58.57;97358.63;5020355;28;20029;-71
2023/09/19 03:00:47;;;;;;;1.10;0.90;;;17.80;81.10;;;19.45;58.44;97355.94;5026523;28;20057;-71
2023/09/19 03:03:16;;;;;;;2.30;1.23;;;17.70;81.00;;;19.43;58.45;97364.25;5020800;28;20045;-71
2023/09/19 03:05:46;;;;;;;1.25;1.00;;;17.70;81.70;;;19.38;58.93;97365.97;5018151;28;20413;-70
2023/09/19 03:08:16;;;;;;;1.50;1.20;;;17.60;82.00;;;19.32;58.93;97361.47;5035102;28;20531;-71
2023/09/19 03:10:50;;;;;;;2.05;1.35;;;17.50;82.90;;;19.33;58.96;97358.56;5027867;27;20048;-70
2023/09/19 03:13:18;;;;;;;1.20;0.90;;;17.60;82.90;;;19.35;59.38;97361.00;4996457;28;20049;-70
2023/09/19 03:15:50;;;;;;;2.40;1.20;;;17.60;83.50;;;19.36;59.50;97358.09;5018058;28;20082;-71
2023/09/19 03:18:23;;;;;;;2.35;1.17;;;17.60;84.00;;;19.37;59.79;97361.63;5021905;28;20123;-70
2023/09/19 03:20:55;;;;;;;4.15;1.15;;;17.60;84.90;;;19.32;59.80;97366.88;5018211;28;20054;-70
2023/09/19 03:23:23;;;;;;;2.30;1.13;;;17.60;85.20;;;19.33;60.03;97368.50;5020237;27;20049;-70
2023/09/19 03:25:52;;;;;;;2.08;1.35;;;17.50;86.10;;;19.29;60.30;97362.75;5017001;28;20038;-70
2023/09/19 03:28:21;;;;;;;1.60;1.20;;;17.50;86.40;;;19.26;60.38;97371.28;5011068;28;20074;-70
2023/09/19 03:31:04;;;;;;;2.90;1.48;;;17.40;86.80;;;19.26;60.39;97376.69;5017525;28;20049;-70
2023/09/19 03:33:34;;;;;;;2.63;1.27;;;17.50;87.10;;;19.25;60.56;97377.72;5013818;28;20041;-67
2023/09/19 03:36:07;;;;;;;2.75;1.40;;;17.50;87.20;;;19.23;60.77;97369.88;5017210;28;20045;-68
2023/09/19 03:38:35;;;;;;;1.60;1.20;;;17.50;87.20;;;19.25;60.54;97375.00;5015358;28;20042;-68
2023/09/19 03:41:03;;;;;;;2.70;1.55;;;17.40;86.80;;;19.26;60.78;97368.59;5023053;28;20535;-68
2023/09/19 03:43:33;;;;;;;1.73;1.20;;;17.50;87.30;;;19.22;61.05;97376.28;5005032;28;20068;-67
2023/09/19 03:46:07;;;;;;;1.63;1.15;;;17.40;87.90;;;19.20;60.86;97378.41;5069077;27;20054;-68
2023/09/19 03:48:36;;;;;;;3.63;1.70;;;17.40;87.90;;;19.19;60.81;97376.75;5002238;28;20398;-68
2023/09/19 03:51:04;;;;;;;1.65;1.20;;;17.40;87.40;;;19.21;60.94;97373.81;5017131;28;20053;-68
2023/09/19 03:53:32;;;;;;;3.65;1.10;;;17.40;87.30;;;19.16;61.19;97376.38;5007850;28;20042;-68
2023/09/19 03:56:00;;;;;;;1.85;1.50;;;17.50;87.60;;;19.17;61.13;97378.81;5017314;28;20522;-67
2023/09/19 03:58:29;;;;;;;2.92;1.98;;;17.50;87.60;;;19.18;61.01;97379.69;5034088;28;20053;-70
2023/09/19 04:00:58;;;;;;;2.28;1.40;;;17.40;87.70;;;19.19;61.14;97370.50;5018528;28;20045;-70
2023/09/19 04:03:34;;;;;;;2.53;1.30;;;17.40;87.80;;;19.21;61.20;97368.41;5021751;28;20130;-67
2023/09/19 04:06:03;;;;;;;2.17;1.08;;;17.40;88.20;;;19.23;61.15;97367.16;5019187;28;20046;-68
2023/09/19 04:08:31;;;;;;;1.40;1.25;;;17.50;88.10;;;19.27;60.95;97371.06;5013762;28;20041;-68
2023/09/19 04:10:58;;;;;;;3.35;2.00;;;17.40;87.50;;;19.28;61.14;97375.41;5013700;28;20050;-68
2023/09/19 04:13:26;;;;;;;1.92;1.50;;;17.50;87.70;;;19.27;61.12;97371.06;5019262;28;20447;-68
2023/09/19 04:15:54;;;;;;;3.97;1.60;;;17.40;87.70;;;19.25;61.27;97370.47;5018216;28;20052;-68
2023/09/19 04:18:23;;;;;;;2.35;1.60;;;17.40;88.20;;;19.26;61.25;97379.38;5020136;28;20046;-69
2023/09/19 04:20:51;;;;;;;2.25;1.30;;;17.50;87.90;;;19.28;60.90;97380.78;5002973;28;20049;-69
2023/09/19 04:23:22;;;;;;;1.65;1.30;;;17.50;87.30;;;19.31;61.20;97379.53;5025962;28;20461;-69
2023/09/19 04:25:50;;;;;;;1.33;1.10;;;17.50;87.10;;;19.35;60.90;97386.16;5019170;28;20053;-69
2023/09/19 04:28:18;;;;;;;5.25;1.75;;;17.60;86.60;;;19.42;60.88;97383.34;5019496;28;20053;-69
2023/09/19 04:30:46;;;;;;;2.95;1.50;;;17.70;86.40;;;19.44;60.66;97386.66;5018137;28;20405;-69
2023/09/19 04:33:14;;;;;;;5.82;1.55;;;17.70;86.00;;;19.44;60.62;97383.97;5015599;28;20038;-69
2023/09/19 04:35:42;;;;;;;1.58;1.30;;;17.70;86.00;;;19.46;60.78;97387.25;5022707;28;20085;-69
2023/09/19 04:38:10;;;;;;;1.58;1.40;;;17.70;86.40;;;19.50;60.66;97384.94;5016014;28;20056;-69
2023/09/19 04:40:39;;;;;;;2.28;1.40;;;17.80;85.70;;;19.50;60.68;97399.25;5014641;28;20045;-69
2023/09/19 04:43:07;;;;;;;3.00;2.00;;;17.80;85.70;;;19.53;60.51;97409.63;5017532;28;20041;-69
2023/09/19 04:45:35;;;;;;;3.95;1.80;;;17.80;86.20;;;19.51;61.13;97405.50;5018673;28;20045;-71
2023/09/19 04:48:03;;;;;;;5.80;1.58;;;17.70;88.90;;;19.39;61.56;97414.34;5015857;28;20053;-69
2023/09/19 04:50:31;;;;;;;3.92;2.17;;;17.50;91.50;;;19.28;62.03;97413.19;5015633;28;20045;-70
2023/09/19 04:52:59;;;;;;;3.22;1.60;;;17.30;93.30;;;19.19;62.34;97419.94;5016120;28;20046;-69
2023/09/19 04:55:27;;;;;;;2.33;1.70;;;17.20;94.50;;;19.15;62.66;97418.69;5021197;28;20084;-70
2023/09/19 04:57:55;;;;;;;2.97;1.70;;;17.20;95.00;;;19.12;62.78;97435.34;5021095;28;20030;-70
2023/09/19 05:00:24;;;;;;;2.15;1.40;;;17.20;95.10;;;19.08;62.73;97445.75;5020805;28;20048;-72
2023/09/19 05:02:56;;;;;;;4.03;1.90;;;17.20;94.00;;;18.94;63.35;97443.38;5020964;28;20057;-70
2023/09/19 05:05:25;;;;;;;1.98;1.63;;;17.10;96.50;;;18.90;63.22;97442.97;5017309;28;20054;-71
2023/09/19 05:07:56;;;;;;;2.20;1.70;;;17.10;97.10;;;18.78;63.95;97436.63;5018358;28;20090;-70
2023/09/19 05:10:24;;;;;;;2.20;1.70;;;17.00;97.20;;;18.74;64.04;97436.22;5019071;28;20049;-70
2023/09/19 05:12:55;;;;;;;1.95;1.52;;;17.00;97.70;;;18.66;64.41;97436.50;5018549;28;20042;-73
2023/09/19 05:15:23;;;;;;;2.92;1.50;;;16.90;97.90;;;18.60;64.46;97443.59;5017970;28;20038;-75
2023/09/19 05:17:54;;;;;;;2.95;1.83;;;16.80;98.10;;;18.58;64.71;97453.75;5018949;28;20046;-75
2023/09/19 05:20:33;;;;;;;1.88;1.27;;;16.80;98.80;;;18.58;64.85;97453.75;5017365;28;20046;-73
2023/09/19 05:23:08;;;;;;;3.28;1.98;;;16.80;99.70;;;18.54;65.26;97457.94;5019248;28;20053;-74
2023/09/19 05:25:37;;;;;;;2.35;1.52;;;16.80;99.90;;;18.50;65.40;97460.22;5021387;28;20049;-73
2023/09/19 05:28:07;;;;;;;2.60;1.85;;;16.80;99.90;;;18.50;65.33;97457.53;5020372;28;20049;-71
2023/09/19 05:30:36;;;;;;;3.42;1.60;;;16.80;99.90;;;18.53;65.70;97456.25;5017493;28;20049;-72
2023/09/19 05:33:05;;;;;;;2.50;1.70;;;16.80;99.70;;;18.41;65.58;97455.31;5018152;28;20046;-72
2023/09/19 05:35:33;;;;;;;2.22;1.65;;;16.70;99.30;;;18.33;65.57;97461.78;5020207;28;20409;-72
2023/09/19 05:38:00;;;;;;;8.02;3.75;;;16.70;99.80;;;18.20;65.85;97461.84;5019556;28;20044;-72
2023/09/19 05:40:28;;;;;;;3.15;1.73;;;16.60;99.30;;;18.09;65.65;97469.56;5016983;28;20042;-71
2023/09/19 05:42:56;;;;;;;2.65;1.50;;;16.60;97.40;;;18.06;65.34;97491.53;5018178;28;20054;-71
2023/09/19 05:45:24;;;;;;;4.82;1.80;;;16.50;96.20;;;17.92;65.14;97489.09;5021694;28;20033;-71
2023/09/19 05:48:04;;;;;;;2.55;1.80;;;16.40;95.40;;;17.82;65.00;97492.22;5020131;28;20061;-71
2023/09/19 05:50:31;;;;;;;3.47;1.90;;;16.30;96.50;;;17.93;65.24;97491.56;5053541;28;20064;-71
2023/09/19 05:52:59;;;;;;;2.67;1.98;;;16.30;96.80;;;17.99;64.86;97490.72;5017988;28;20104;-72
2023/09/19 05:55:28;;;;;;;4.85;2.08;;;16.40;96.50;;;18.01;64.69;97485.97;5021013;28;20353;-71
2023/09/19 05:57:56;;;;;;;2.30;1.90;;;16.40;96.00;;;18.05;64.45;97497.97;5021122;28;20053;-71
2023/09/19 06:00:27;;;;;;;5.00;2.00;;;16.40;96.00;;;18.14;64.46;97492.34;5039637;28;20048;-71
2023/09/19 06:02:57;;;;;;;2.75;2.22;;;16.40;96.20;;;18.18;64.46;97497.06;5019989;28;20037;-72
2023/09/19 06:05:26;;;;;;;2.72;1.90;;;16.40;96.90;;;18.19;64.41;97501.44;5012488;28;20093;-68
2023/09/19 06:07:54;;;;;;;4.13;2.30;;;16.40;96.60;;;18.14;64.47;97503.09;5019643;28;20041;-69
2023/09/19 06:10:22;;;;;;;3.45;2.45;;;16.40;96.50;;;18.19;64.40;97517.59;5017900;28;20068;-68
2023/09/19 06:12:50;;;;;;;4.45;2.13;;;16.40;96.20;;;18.16;64.30;97503.72;5017672;28;20046;-69
2023/09/19 06:15:24;;;;;;;2.58;1.70;;;16.50;94.50;;;18.10;64.13;97500.81;5018424;28;20046;-68
2023/09/19 06:17:55;;;;;;;3.63;1.85;;;16.50;93.80;;;18.15;63.74;97510.16;5020890;28;20038;-69
2023/09/19 06:20:25;;;;;;;3.83;2.00;;;16.50;93.70;;;18.17;63.80;97514.28;5016606;28;20053;-70
2023/09/19 06:22:53;;;;;;;4.72;1.92;;;16.60;94.10;;;18.12;63.81;97507.88;5016388;28;20073;-68
2023/09/19 06:25:21;;;;;;;4.70;1.90;;;16.50;93.50;;;18.13;63.67;97518.44;5018536;28;20053;-72
2023/09/19 06:27:53;;;;;;;3.60;2.20;;;16.50;93.40;;;18.03;63.73;97512.66;5016951;28;20492;-72
2023/09/19 06:30:23;;;;;;;2.75;1.90;;;16.40;92.30;;;18.05;63.68;97513.31;5016923;28;20049;-70
2023/09/19 06:33:01;;;;;;;6.75;2.30;;;16.40;94.10;;;18.05;63.79;97511.44;5016023;28;20034;-72
2023/09/19 06:35:32;;;;;;;4.80;2.58;;;16.40;93.90;;;18.14;63.74;97513.88;5015478;28;20421;-69
2023/09/19 06:38:04;;;;;;;4.03;1.70;;;16.40;94.60;;;18.18;63.74;97517.81;5015903;28;20041;-70
2023/09/19 06:40:34;;;;;;;5.28;2.22;;;16.50;94.00;;;18.23;63.56;97521.50;5017224;28;20042;-71
2023/09/19 06:43:02;;;;;;;3.40;1.90;;;16.50;93.70;;;18.28;63.51;97518.16;5015985;28;20503;-71
2023/09/19 06:45:31;;;;;;;4.78;2.00;;;16.60;93.90;;;18.29;63.42;97515.28;5020122;28;20072;-69
2023/09/19 06:48:00;;;;;;;6.50;2.50;;;16.60;92.90;;;18.30;63.43;97518.81;5020373;28;20424;-71
2023/09/19 06:50:28;;;;;;;3.53;2.38;;;16.60;93.70;;;18.33;63.43;97512.16;5011197;28;20496;-71
2023/09/19 06:52:57;;;;;;;3.03;1.90;;;16.60;93.40;;;18.39;63.35;97522.06;5020278;28;20049;-69
2023/09/19 06:55:31;;;;;;;3.88;2.28;;;16.70;93.70;;;18.39;63.40;97533.69;5019546;28;20049;-70
2023/09/19 06:57:59;;;;;;;5.10;2.25;;;16.70;93.30;;;18.34;63.68;97536.19;5019272;28;20384;-70
2023/09/19 07:00:28;;;;;;;2.85;2.22;;;16.60;94.00;;;18.30;63.52;97541.19;5004553;28;20044;-70
2023/09/19 07:03:04;;;;;;;3.65;1.80;;;16.60;93.40;;;18.25;63.75;97550.94;5039451;28;20045;-70
2023/09/19 07:05:33;;;;;;;3.60;2.00;;;16.60;93.80;;;18.28;63.46;97558.59;5020176;28;20045;-70
2023/09/19 07:08:01;;;;;;;2.67;1.92;;;16.60;94.00;;;18.30;63.55;97561.94;5018657;28;20188;-73
2023/09/19 07:10:30;;;;;;;2.80;2.03;;;16.60;93.50;;;18.32;63.53;97556.28;5016583;28;20041;-68
2023/09/19 07:13:09;;;;;;;4.40;1.85;;;16.60;93.30;;;18.32;63.45;97559.84;5016584;28;20157;-68
2023/09/19 07:15:46;;;;;;;3.25;2.03;;;16.60;93.40;;;18.35;63.55;97564.78;5015317;28;20049;-68
2023/09/19 07:18:16;;;;;;;4.60;2.25;;;16.60;94.00;;;18.36;63.36;97565.59;5015979;28;20038;-68
2023/09/19 07:20:49;;;;;;;3.28;1.95;;;16.70;93.80;;;18.36;63.31;97566.47;5007170;28;20077;-67
2023/09/19 07:23:25;;;;;;;4.47;2.70;;;16.70;91.30;;;18.30;63.53;97573.53;5015292;28;20060;-68
2023/09/19 07:25:57;;;;;;;4.05;1.90;;;16.70;93.20;;;18.31;63.44;97587.81;5015109;28;20394;-69
2023/09/19 07:28:24;;;;;;;3.53;2.33;;;16.70;92.80;;;18.28;63.57;97570.22;5018843;28;20046;-69
2023/09/19 07:30:52;;;;;;;5.65;1.92;;;16.70;93.50;;;18.34;63.69;97589.25;5017881;28;20041;-69
2023/09/19 07:33:20;;;;;;;4.72;2.00;;;16.70;93.20;;;18.36;63.68;97579.94;5017842;28;20046;-69
2023/09/19 07:35:48;;;;;;;4.70;2.25;;;16.80;93.50;;;18.43;63.63;97582.59;5016041;28;20030;-68
2023/09/19 07:38:16;;;;;;;3.53;2.38;;;16.90;93.40;;;18.45;63.90;97592.13;5032725;28;20042;-68
2023/09/19 07:40:44;;;;;;;3.60;2.30;;;16.90;94.20;;;18.42;63.74;97587.16;5019715;28;20041;-72
2023/09/19 07:43:12;;;;;;;7.22;2.50;;;16.90;93.40;;;18.49;63.92;97587.13;5017818;28;20060;-71
2023/09/19 07:45:39;;;;;;;5.65;2.28;;;16.90;93.70;;;18.49;63.90;97587.13;5015546;28;20524;-71
2023/09/19 07:48:14;;;;;;;5.47;2.40;;;16.90;93.50;;;18.53;64.03;97588.34;5015193;28;20066;-71
2023/09/19 07:50:43;;;;;;;3.40;2.42;;;17.00;94.30;;;18.63;64.18;97583.34;5022113;28;20046;-70
2023/09/19 07:53:13;;;;;;;6.18;2.88;;;17.10;94.20;;;18.71;63.84;97590.38;5016057;28;20050;-71
2023/09/19 07:55:41;;;;;;;4.95;2.03;;;17.20;93.30;;;18.68;63.26;97596.19;5019103;28;20056;-70
2023/09/19 07:58:08;;;;;;;3.80;2.00;;;17.20;91.50;;;18.75;63.45;97601.56;5018187;28;20393;-70
2023/09/19 08:00:36;;;;;;;4.93;2.38;;;17.30;91.60;;;18.68;63.16;97601.56;5016152;28;20489;-71
2023/09/19 08:03:04;;;;;;;2.20;1.75;;;17.20;90.20;;;18.76;63.07;97612.09;5016002;28;20052;-71
2023/09/19 08:05:44;;;;;;;3.05;1.80;;;17.30;90.30;;;18.83;62.88;97614.81;5015488;28;20046;-71
2023/09/19 08:08:14;;;;;;;3.25;2.00;;;17.30;89.60;;;18.88;62.53;97617.69;5015928;28;20055;-71
2023/09/19 08:10:45;;;;;;;2.63;1.50;;;17.40;88.70;;;18.95;62.30;97613.09;5019347;28;20050;-71
2023/09/19 08:13:14;;;;;;;2.70;1.70;;;17.40;87.80;;;19.00;62.20;97618.69;5017558;28;20141;-71
2023/09/19 08:15:45;;;;;;;2.85;1.75;;;17.50;88.10;;;18.98;61.95;97618.06;5015711;28;20417;-71
2023/09/19 08:18:14;;;;;;;3.05;1.90;;;17.50;87.20;;;19.05;61.39;97623.41;5028091;28;20045;-71
2023/09/19 08:20:42;;;;;;;4.65;1.92;;;17.50;86.60;;;19.12;61.25;97618.81;5019059;28;20064;-72
2023/09/19 08:23:10;;;;;;;2.47;1.70;;;17.60;85.60;;;19.11;61.02;97617.16;5017816;28;20424;-71
2023/09/19 08:25:39;;;;;;;2.65;1.52;;;17.60;84.40;;;19.20;60.88;97618.56;5015514;28;20049;-71
2023/09/19 08:28:12;;;;;;;2.75;1.63;;;17.70;85.00;;;19.24;60.88;97618.94;5016226;28;20057;-70
2023/09/19 08:30:40;;;;;;;2.43;1.37;;;17.80;85.00;;;19.20;60.14;97626.66;5024779;28;20042;-71
2023/09/19 08:33:08;;;;;;;3.60;1.65;;;17.70;81.40;;;19.19;59.73;97621.47;5018648;28;20528;-70
2023/09/19 08:35:39;;;;;;;3.42;1.70;;;17.70;82.60;;;19.06;59.71;97611.59;5021783;28;20519;-70
2023/09/19 08:38:07;;;;;;;2.80;1.40;;;17.70;82.20;;;19.05;60.13;97618.84;5022562;28;20523;-71
2023/09/19 08:40:40;;;;;;;3.17;1.67;;;17.70;83.10;;;19.12;60.43;97626.09;5019241;28;20042;-71
2023/09/19 08:43:08;;;;;;;2.88;1.73;;;17.80;83.30;;;19.15;60.02;97631.03;5017919;28;20455;-71
2023/09/19 08:45:37;;;;;;;1.95;1.40;;;17.80;82.90;;;19.28;59.98;97630.97;5021624;28;20041;-71
2023/09/19 08:48:25;;;;;;;2.78;1.60;;;17.90;83.10;;;19.36;60.01;97629.88;5030774;27;20053;-71
2023/09/19 08:51:17;;;;;;;2.85;1.70;;;18.00;81.80;;;19.47;60.24;97638.09;5018943;28;20061;-71
2023/09/19 08:53:54;;;;;;;1.90;1.20;;;18.20;82.40;;;19.57;59.37;97634.91;5021736;28;20041;-70
2023/09/19 08:56:24;;;;;;;2.67;1.63;;;18.30;81.50;;;19.63;59.45;97633.22;5021061;28;20041;-70
2023/09/19 08:58:59;;;;;;;3.15;1.80;;;18.30;80.80;;;19.72;58.64;97634.63;5017722;28;20042;-70
2023/09/19 09:01:32;;;;;;;1.88;1.50;;;18.50;77.70;;;19.84;58.95;97627.47;5002075;28;20053;-70
2023/09/19 09:04:02;;;;;;;3.38;1.50;;;18.70;78.10;;;19.85;57.84;97631.84;5020270;28;20061;-71
2023/09/19 09:06:32;;;;;;;2.28;1.45;;;18.70;77.00;;;19.88;57.20;97643.25;5020216;28;20053;-70
2023/09/19 09:09:00;;;;;;;2.88;1.60;;;18.70;75.20;;;19.74;55.44;97637.94;5017442;28;20064;-70
2023/09/19 09:11:28;;;;;;;1.80;1.17;;;18.60;71.10;;;19.74;54.89;97639.81;5026976;28;20072;-70
2023/09/19 09:13:57;;;;;;;1.88;1.38;;;18.60;71.60;;;19.85;54.53;97630.97;5021937;28;20489;-70
2023/09/19 09:16:25;;;;;;;3.17;1.20;;;18.70;71.00;;;19.86;53.99;97632.66;5020680;28;20493;-70
2023/09/19 09:18:54;;;;;;;1.65;1.25;;;18.70;70.50;;;19.96;54.59;97634.84;5017733;28;20496;-70
2023/09/19 09:21:25;;;;;;;2.63;1.55;;;18.70;70.70;;;19.99;53.77;97639.81;5019324;28;20050;-70
2023/09/19 09:23:53;;;;;;;2.72;1.20;;;18.70;69.00;;;19.96;53.28;97638.38;5020594;28;20046;-72
2023/09/19 09:26:54;;;;;;;4.50;1.42;;;18.70;68.70;;;19.89;52.22;97645.72;5019720;28;20121;-70
2023/09/19 09:29:49;;;;;;;4.32;1.50;;;18.80;66.30;;;19.81;51.57;97641.44;5036237;28;20069;-70
2023/09/19 09:32:25;;;;;;;2.15;1.52;;;18.70;65.40;;;19.87;51.95;97634.28;5020500;28;20472;-70
2023/09/19 09:34:59;;;;;;;1.92;1.42;;;18.80;67.50;;;20.05;52.89;97641.63;5021680;28;20042;-70
2023/09/19 09:37:32;;;;;;;3.92;1.67;;;18.80;66.40;;;20.20;52.49;97649.38;5020050;28;20057;-70
2023/09/19 09:42:46;;;;;;;4.00;1.63;;;19.10;67.00;;;20.40;52.01;97641.91;5020191;28;20048;-69
2023/09/19 09:48:03;;;;;;;1.85;1.25;;;19.30;66.20;;;20.45;50.99;97641.22;5016374;28;20061;-70
2023/09/19 09:50:55;;;;;;;2.25;1.30;;;19.30;64.70;;;20.37;49.68;97636.94;5008218;28;20050;-68
2023/09/19 09:53:28;;;;;;;2.58;1.70;;;19.30;62.10;;;20.33;49.95;97643.84;5019694;28;20049;-69
2023/09/19 09:56:06;;;;;;;2.25;1.23;;;19.10;62.20;;;20.34;49.51;97631.16;5022287;28;20405;-69
2023/09/19 09:58:55;;;;;;;2.03;1.42;;;19.10;61.80;;;20.36;49.79;97635.28;5018842;28;20499;-68
2023/09/19 10:01:26;;;;;;;2.80;1.67;;;19.20;61.60;;;20.46;49.91;97637.47;5061158;28;20046;-70
2023/09/19 10:04:00;;;;;;;1.80;1.30;;;19.30;61.80;;;20.50;49.68;97632.44;5018038;28;20046;-70
2023/09/19 10:06:46;;;;;;;1.45;1.20;;;19.30;62.70;;;20.52;50.01;97633.06;5017573;28;20046;-69
2023/09/19 10:09:17;;;;;;;2.55;1.23;;;19.40;62.20;;;20.59;49.33;97631.09;5019927;28;20044;-68
2023/09/19 10:12:08;;;;;;;5.00;1.98;;;19.40;62.70;;;20.67;49.21;97632.72;5018109;28;20049;-69
2023/09/19 10:14:41;;;;;;;1.58;1.40;;;19.60;62.30;;;20.61;49.06;97626.31;5019322;28;20046;-69
2023/09/19 10:17:12;;;;;;;2.13;1.15;;;19.50;61.20;;;20.64;48.95;97637.50;5020296;28;20045;-70
2023/09/19 10:19:52;;;;;;;5.22;1.50;;;19.50;62.00;;;20.59;49.04;97640.06;5017301;28;20052;-68
2023/09/19 10:22:22;;;;;;;3.42;1.40;;;19.60;62.10;;;20.65;48.76;97633.75;5016633;28;20050;-71
2023/09/19 10:24:53;;;;;;;1.95;1.35;;;19.60;61.30;;;20.63;48.77;97625.03;5023959;28;20053;-72
2023/09/19 10:27:36;;;;;;;2.10;1.40;;;19.60;60.50;;;20.62;48.34;97620.66;5017300;28;20042;-68
2023/09/19 10:30:08;;;;;;;3.15;1.70;;;19.60;60.00;;;20.66;48.23;97631.88;5019758;28;20072;-68
2023/09/19 10:32:39;;;;;;;2.63;1.80;;;19.70;59.90;;;20.61;48.47;97637.16;5018899;28;20291;-68
2023/09/19 10:35:08;;;;;;;3.13;1.52;;;19.60;59.90;;;20.72;48.52;97622.84;5015021;28;20067;-69
2023/09/19 10:37:37;;;;;;;2.35;1.48;;;19.70;60.20;;;20.73;48.88;97632.63;5017782;28;20417;-69
2023/09/19 10:40:11;;;;;;;3.17;1.48;;;19.70;61.10;;;20.71;48.26;97629.31;5019441;28;20041;-69
2023/09/19 10:42:42;;;;;;;2.78;1.50;;;19.70;60.90;;;20.74;48.20;97633.44;5017425;28;20048;-68
2023/09/19 10:45:13;;;;;;;1.73;1.23;;;19.70;60.20;;;20.79;48.67;97626.31;5015489;28;20053;-69